Time;durP1;ratioP1;P1;durP2;ratioP2;P2;SDS_P1;SDS_P2;PMS_P1;PMS_P2;Temp;Humidity;BMP_temperature;BMP_pressure;BME280_temperature;BME280_humidity;BME280_pressure;Samples;Min_cycle;Max_cycle;Signal;HPM_P1;HPM_P2
2022/09/13 00:01:28;;;;;;;;;;;;;;;16.21;54.38;99798.97;4371408;32;20017;-84
2022/09/13 00:03:55;;;;;;;;;;;;;;;16.19;54.53;99800.72;4371024;32;19971;-85
2022/09/13 00:06:22;;;;;;;;;;;;;;;16.15;54.72;99808.63;4372258;32;20009;-85
2022/09/13 00:08:49;;;;;;;;;;;;;;;16.16;54.60;99808.59;4377578;32;20058;-82
2022/09/13 00:11:17;;;;;;;;;;;;;;;16.18;54.49;99808.59;4370981;32;19985;-84
2022/09/13 00:13:44;;;;;;;;;;;;;;;16.35;53.69;99800.63;4375477;32;20081;-81
2022/09/13 00:16:12;;;;;;;;;;;;;;;15.95;54.68;99806.09;4362862;32;20014;-84
2022/09/13 00:18:39;;;;;;;;;;;;;;;16.24;54.32;99812.03;4377539;32;19987;-85
2022/09/13 00:21:08;;;;;;;;;;;;;;;15.80;55.54;99807.94;4357241;32;19998;-84
2022/09/13 00:23:35;;;;;;;;;;;;;;;15.91;54.89;99805.25;4378768;32;20001;-84
2022/09/13 00:26:03;;;;;;;;;;;;;;;15.91;54.85;99799.19;4371026;32;19987;-84
2022/09/13 00:28:30;;;;;;;;;;;;;;;15.81;55.05;99799.22;4370965;32;19987;-86
2022/09/13 00:31:00;;;;;;;;;;;;;;;15.95;54.82;99800.88;4373102;32;19991;-85
2022/09/13 00:33:27;;;;;;;;;;;;;;;15.72;55.32;99798.41;4377434;32;20276;-84
2022/09/13 00:35:54;;;;;;;;;;;;;;;15.70;55.66;99803.66;4371381;32;20014;-84
2022/09/13 00:38:21;;;;;;;;;;;;;;;15.51;56.19;99800.25;4358892;32;20026;-83
2022/09/13 00:40:48;;;;;;;;;;;;;;;15.84;55.14;99794.87;4363799;32;19986;-83
2022/09/13 00:43:18;;;;;;;;;;;;;;;15.83;54.65;99791.41;4357229;32;19991;-83
2022/09/13 00:45:45;;;;;;;;;;;;;;;15.59;55.12;99797.59;4349554;32;19995;-83
2022/09/13 00:48:20;;;;;;;;;;;;;;;15.32;56.20;99798.59;4357454;32;19995;-83
2022/09/13 00:50:49;;;;;;;;;;;;;;;15.64;55.28;99801.06;4364485;32;20260;-83
2022/09/13 00:53:18;;;;;;;;;;;;;;;15.70;54.36;99794.97;4368992;32;19979;-83
2022/09/13 00:55:50;;;;;;;;;;;;;;;15.56;54.73;99795.00;4354579;32;20005;-82
2022/09/13 00:58:20;;;;;;;;;;;;;;;15.42;55.00;99795.06;4371570;32;19995;-84
2022/09/13 01:00:47;;;;;;;;;;;;;;;15.57;54.51;99799.31;4356842;32;19987;-84
2022/09/13 01:03:14;;;;;;;;;;;;;;;15.69;53.97;99801.03;4352314;32;20006;-84
2022/09/13 01:05:48;;;;;;;;;;;;;;;15.70;54.42;99795.84;4347352;32;19991;-82
2022/09/13 01:08:21;;;;;;;;;;;;;;;15.70;54.30;99795.84;4361926;32;19987;-82
2022/09/13 01:10:51;;;;;;;;;;;;;;;15.44;54.90;99800.25;4357246;32;20046;-83
2022/09/13 01:13:31;;;;;;;;;;;;;;;15.55;54.54;99794.13;4348805;32;19983;-84
2022/09/13 01:15:58;;;;;;;;;;;;;;;15.69;54.11;99788.88;4356563;32;20018;-83
2022/09/13 01:18:25;;;;;;;;;;;;;;;15.43;54.84;99798.53;4370640;32;20463;-84
2022/09/13 01:20:51;;;;;;;;;;;;;;;15.42;54.78;99799.41;4357291;32;20401;-83
2022/09/13 01:23:18;;;;;;;;;;;;;;;15.35;55.02;99799.44;4370405;32;20005;-83
2022/09/13 01:25:57;;;;;;;;;;;;;;;15.19;55.13;99797.78;4370541;32;20030;-83
2022/09/13 01:28:40;;;;;;;;;;;;;;;15.49;54.47;99801.13;4365864;32;20361;-84
2022/09/13 01:31:16;;;;;;;;;;;;;;;15.45;54.18;99794.19;4354013;32;20317;-84
2022/09/13 01:34:03;;;;;;;;;;;;;;;15.50;53.83;99793.28;4355811;32;19987;-83
2022/09/13 01:37:04;;;;;;;;;;;;;;;15.46;53.90;99801.13;4358620;32;20333;-83
2022/09/13 01:39:31;;;;;;;;;;;;;;;15.27;54.63;99795.13;4341471;32;19998;-84
2022/09/13 01:42:04;;;;;;;;;;;;;;;15.44;54.23;99797.66;4355600;32;20026;-84
2022/09/13 01:44:46;;;;;;;;;;;;;;;15.45;54.12;99794.19;4355520;32;19991;-81
2022/09/13 01:47:16;;;;;;;;;;;;;;;15.39;54.28;99792.47;4359778;32;20016;-84
2022/09/13 01:49:58;;;;;;;;;;;;;;;15.33;54.32;99793.34;4358651;32;19991;-81
2022/09/13 01:52:41;;;;;;;;;;;;;;;15.40;53.80;99790.72;4355465;32;20025;-84
2022/09/13 01:55:38;;;;;;;;;;;;;;;15.36;53.33;99784.66;4348638;32;20030;-86
2022/09/13 01:58:13;;;;;;;;;;;;;;;15.23;54.06;99781.22;4355363;32;19980;-82
2022/09/13 02:00:47;;;;;;;;;;;;;;;15.28;54.00;99779.47;4363486;32;20010;-85
2022/09/13 02:03:17;;;;;;;;;;;;;;;15.31;53.90;99776.84;4355144;32;19971;-80
2022/09/13 02:05:44;;;;;;;;;;;;;;;15.09;54.69;99783.00;4354437;32;20006;-84
2022/09/13 02:08:15;;;;;;;;;;;;;;;15.34;53.99;99776.81;4354835;32;19997;-85
2022/09/13 02:10:44;;;;;;;;;;;;;;;15.40;53.52;99775.06;4353427;32;20367;-85
2022/09/13 02:13:12;;;;;;;;;;;;;;;15.27;53.93;99774.25;4356266;32;19990;-84
2022/09/13 02:15:40;;;;;;;;;;;;;;;15.26;54.36;99775.16;4359546;32;20054;-85
2022/09/13 02:18:08;;;;;;;;;;;;;;;15.26;53.82;99773.41;4341457;32;20292;-85
2022/09/13 02:20:36;;;;;;;;;;;;;;;15.30;53.73;99774.25;4339368;32;20334;-84
2022/09/13 02:23:06;;;;;;;;;;;;;;;15.19;54.25;99770.81;4369389;32;19994;-83
2022/09/13 02:25:32;;;;;;;;;;;;;;;15.11;54.54;99768.22;4366538;32;20413;-83
2022/09/13 02:28:01;;;;;;;;;;;;;;;15.30;53.49;99759.47;4365445;32;20473;-83
2022/09/13 02:30:30;;;;;;;;;;;;;;;15.06;54.69;99759.56;4372708;32;20767;-84
2022/09/13 02:32:58;;;;;;;;;;;;;;;15.19;54.33;99755.16;4368514;32;19986;-84
2022/09/13 02:35:35;;;;;;;;;;;;;;;15.09;54.37;99765.66;4370021;32;20033;-84
2022/09/13 02:38:07;;;;;;;;;;;;;;;15.22;54.30;99762.97;4363352;32;20328;-84
2022/09/13 02:40:36;;;;;;;;;;;;;;;15.10;54.30;99762.16;4368571;32;19986;-85
2022/09/13 02:43:04;;;;;;;;;;;;;;;15.00;54.80;99762.22;4369789;32;19983;-83
2022/09/13 02:45:32;;;;;;;;;;;;;;;15.08;54.65;99757.81;4370634;32;19975;-82
2022/09/13 02:48:02;;;;;;;;;;;;;;;15.01;54.38;99750.91;4376463;32;20016;-83
2022/09/13 02:50:32;;;;;;;;;;;;;;;15.08;54.05;99757.81;4371403;32;20029;-84
2022/09/13 02:52:58;;;;;;;;;;;;;;;14.97;54.41;99754.41;4370306;32;20094;-81
2022/09/13 02:55:25;;;;;;;;;;;;;;;15.15;53.86;99746.47;4373388;32;20069;-85
2022/09/13 02:57:59;;;;;;;;;;;;;;;15.14;54.19;99747.38;4357574;32;19994;-85
2022/09/13 03:00:27;;;;;;;;;;;;;;;14.95;54.33;99745.69;4369708;32;20078;-86
2022/09/13 03:02:55;;;;;;;;;;;;;;;14.92;54.66;99751.78;4371781;32;20321;-85
2022/09/13 03:05:21;;;;;;;;;;;;;;;14.96;54.12;99752.62;4370135;32;20803;-85
2022/09/13 03:07:48;;;;;;;;;;;;;;;14.96;54.42;99748.28;4357774;32;19983;-85
2022/09/13 03:10:15;;;;;;;;;;;;;;;14.97;54.27;99741.37;4377675;32;19978;-85
2022/09/13 03:12:45;;;;;;;;;;;;;;;14.94;54.32;99738.75;4370433;32;20029;-81
2022/09/13 03:15:32;;;;;;;;;;;;;;;14.87;54.40;99733.56;4380728;32;19975;-83
2022/09/13 03:18:09;;;;;;;;;;;;;;;14.76;55.11;99732.72;4372234;32;19989;-85
2022/09/13 03:20:48;;;;;;;;;;;;;;;15.08;53.48;99736.97;4369858;32;19991;-84
2022/09/13 03:23:20;;;;;;;;;;;;;;;14.69;54.64;99744.03;4359216;32;20363;-84
2022/09/13 03:25:53;;;;;;;;;;;;;;;14.68;54.66;99736.22;4377232;32;20002;-84
2022/09/13 03:28:30;;;;;;;;;;;;;;;14.61;54.68;99736.25;4371268;32;19982;-83
2022/09/13 03:31:07;;;;;;;;;;;;;;;14.79;54.34;99724.91;4369397;32;19978;-83
2022/09/13 03:33:43;;;;;;;;;;;;;;;14.96;53.43;99726.56;4368797;32;19975;-83
2022/09/13 03:36:10;;;;;;;;;;;;;;;14.80;54.18;99721.41;4369913;32;21071;-83
2022/09/13 03:38:38;;;;;;;;;;;;;;;14.55;54.88;99730.16;4369037;32;19983;-83
2022/09/13 03:41:06;;;;;;;;;;;;;;;14.67;54.43;99718.84;4373703;32;20013;-84
2022/09/13 03:43:50;;;;;;;;;;;;;;;14.62;54.96;99721.47;4384644;32;19975;-83
2022/09/13 03:46:19;;;;;;;;;;;;;;;14.74;54.29;99721.47;4368967;32;20021;-83
2022/09/13 03:48:46;;;;;;;;;;;;;;;14.68;54.45;99721.47;4366015;32;19990;-86
2022/09/13 03:51:12;;;;;;;;;;;;;;;14.74;53.86;99716.25;4385166;32;19991;-84
2022/09/13 03:53:45;;;;;;;;;;;;;;;14.75;54.07;99720.56;4381042;32;20001;-84
2022/09/13 03:56:16;;;;;;;;;;;;;;;14.80;53.70;99716.19;4372576;32;19998;-85
2022/09/13 03:58:42;;;;;;;;;;;;;;;14.62;54.60;99721.47;4338109;32;19991;-84
2022/09/13 04:01:09;;;;;;;;;;;;;;;14.61;54.12;99720.63;4342710;32;20757;-83
2022/09/13 04:03:37;;;;;;;;;;;;;;;14.56;54.56;99718.87;4356436;32;20298;-84
2022/09/13 04:06:04;;;;;;;;;;;;;;;14.67;54.35;99721.47;4356348;32;20301;-84
2022/09/13 04:08:31;;;;;;;;;;;;;;;14.48;54.44;99726.66;4342452;32;19987;-84
2022/09/13 04:10:58;;;;;;;;;;;;;;;14.43;54.97;99716.25;4343065;32;20005;-84
2022/09/13 04:13:25;;;;;;;;;;;;;;;14.59;54.03;99726.69;4356187;32;19983;-83
2022/09/13 04:15:53;;;;;;;;;;;;;;;14.38;55.15;99728.41;4350807;32;19983;-83
2022/09/13 04:18:20;;;;;;;;;;;;;;;14.23;55.42;99728.44;4342515;32;20070;-82
2022/09/13 04:20:54;;;;;;;;;;;;;;;14.50;54.90;99729.28;4357019;32;19987;-84
2022/09/13 04:23:21;;;;;;;;;;;;;;;14.53;54.79;99731.91;4352828;32;20412;-83
2022/09/13 04:25:48;;;;;;;;;;;;;;;14.10;55.71;99737.09;4342489;32;20013;-84
2022/09/13 04:28:15;;;;;;;;;;;;;;;14.35;55.21;99732.75;4064741;32;5001174;-84
2022/09/13 04:30:45;;;;;;;;;;;;;;;14.26;55.29;99736.22;4369834;32;19974;-84
2022/09/13 04:33:12;;;;;;;;;;;;;;;14.41;55.19;99737.97;4379129;32;19979;-85
2022/09/13 04:35:39;;;;;;;;;;;;;;;14.38;54.71;99733.63;4369940;32;19983;-86
2022/09/13 04:38:07;;;;;;;;;;;;;;;14.56;54.47;99732.78;4364830;32;20021;-96
2022/09/13 04:40:34;;;;;;;;;;;;;;;14.43;54.86;99731.91;4372667;32;20336;-89
2022/09/13 04:43:01;;;;;;;;;;;;;;;14.22;55.73;99734.50;4379296;32;20690;-94
2022/09/13 04:45:28;;;;;;;;;;;;;;;14.40;55.38;99729.28;4372228;32;19994;-86
2022/09/13 04:47:56;;;;;;;;;;;;;;;14.42;55.21;99735.38;4363418;32;19983;-93
2022/09/13 04:50:23;;;;;;;;;;;;;;;14.42;55.39;99735.38;4371216;32;19979;-93
2022/09/13 04:52:50;;;;;;;;;;;;;;;14.43;55.41;99731.91;4361566;32;19975;-91
2022/09/13 04:55:17;;;;;;;;;;;;;;;14.58;55.04;99735.34;4363930;32;20042;-95
2022/09/13 04:57:44;;;;;;;;;;;;;;;14.59;55.40;99731.91;4379535;32;19982;-94
2022/09/13 05:00:15;;;;;;;;;;;;;;;14.62;55.35;99735.38;4373087;32;20419;-95
2022/09/13 05:02:41;;;;;;;;;;;;;;;14.51;55.78;99738.84;4378313;32;19975;-92
2022/09/13 05:05:08;;;;;;;;;;;;;;;14.59;55.52;99742.31;4370748;32;19983;-82
2022/09/13 05:07:35;;;;;;;;;;;;;;;14.70;55.65;99740.53;4369714;32;20435;-85
2022/09/13 05:10:02;;;;;;;;;;;;;;;14.72;56.08;99737.97;4377200;32;20344;-77
2022/09/13 05:12:29;;;;;;;;;;;;;;;14.62;56.47;99737.09;4378504;32;19983;-82
2022/09/13 05:14:56;;;;;;;;;;;;;;;14.58;56.66;99730.16;4386040;32;20339;-80
2022/09/13 05:17:23;;;;;;;;;;;;;;;14.74;56.34;99731.88;4378547;32;20028;-77
2022/09/13 05:19:53;;;;;;;;;;;;;;;14.83;56.18;99739.63;4396405;32;19986;-87
2022/09/13 05:22:21;;;;;;;;;;;;;;;14.95;55.88;99741.34;4392503;32;20001;-93
2022/09/13 05:24:48;;;;;;;;;;;;;;;14.95;55.95;99743.97;4395270;32;19970;-95
2022/09/13 05:27:15;;;;;;;;;;;;;;;14.84;56.12;99744.00;4398331;32;19970;-86
2022/09/13 05:29:42;;;;;;;;;;;;;;;14.99;55.46;99747.41;4387106;32;19985;-88
2022/09/13 05:32:09;;;;;;;;;;;;;;;15.21;53.88;99740.38;4379607;32;19996;-91
2022/09/13 05:34:36;;;;;;;;;;;;;;;15.07;54.58;99735.25;4384812;32;19978;-92
2022/09/13 05:37:03;;;;;;;;;;;;;;;14.92;56.14;99743.09;4389547;32;20697;-92
2022/09/13 05:39:29;;;;;;;;;;;;;;;15.19;54.53;99735.19;4400332;32;20007;-89
2022/09/13 05:42:16;;;;;;;;;;;;;;;15.19;55.29;99743.00;4385792;32;19982;-92
2022/09/13 05:44:43;;;;;;;;;;;;;;;15.13;55.84;99740.44;4393299;32;20020;-94
2022/09/13 05:47:12;;;;;;;;;;;;;;;15.21;55.29;99743.84;4387707;32;19993;-95
2022/09/13 05:49:39;;;;;;;;;;;;;;;15.27;55.79;99743.81;4387445;32;20005;-92
2022/09/13 05:52:26;;;;;;;;;;;;;;;15.11;56.33;99735.19;4376402;32;19989;-94
2022/09/13 05:54:53;;;;;;;;;;;;;;;15.58;53.62;99738.47;4389777;32;20017;-94
2022/09/13 05:57:20;;;;;;;;;;;;;;;15.44;54.76;99740.25;4385758;32;19990;-85
2022/09/13 05:59:46;;;;;;;;;;;;;;;15.67;54.38;99743.66;4384913;32;19954;-86
2022/09/13 06:02:13;;;;;;;;;;;;;;;15.69;53.70;99747.09;4390918;32;19978;-94
2022/09/13 06:04:41;;;;;;;;;;;;;;;15.67;54.68;99750.63;4392203;32;19978;-92
2022/09/13 06:07:09;;;;;;;;;;;;;;;15.85;54.16;99754.84;4380473;32;19982;-95
2022/09/13 06:09:36;;;;;;;;;;;;;;;15.97;53.33;99757.37;4387707;32;19983;-80
2022/09/13 06:12:04;;;;;;;;;;;;;;;16.03;53.25;99758.19;4399209;32;20291;-86
2022/09/13 06:14:30;;;;;;;;;;;;;;;16.04;53.98;99756.44;4395065;32;19959;-90
2022/09/13 06:16:57;;;;;;;;;;;;;;;16.28;52.79;99747.56;4400844;32;19986;-94
2022/09/13 06:19:24;;;;;;;;;;;;;;;16.18;52.93;99749.37;4389726;32;19990;-93
2022/09/13 06:21:51;;;;;;;;;;;;;;;16.35;53.12;99743.16;4389657;32;20311;-93
2022/09/13 06:24:18;;;;;;;;;;;;;;;16.47;53.20;99743.03;4404274;32;19985;-92
2022/09/13 06:26:45;;;;;;;;;;;;;;;16.58;52.64;99740.31;4403841;32;19974;-95
2022/09/13 06:29:12;;;;;;;;;;;;;;;16.57;53.81;99747.28;4405297;32;19970;-92
2022/09/13 06:31:43;;;;;;;;;;;;;;;16.82;52.29;99744.47;4387278;32;20029;-94
2022/09/13 06:34:15;;;;;;;;;;;;;;;16.93;52.34;99742.56;4395624;32;20014;-94
2022/09/13 06:36:42;;;;;;;;;;;;;;;17.06;51.54;99745.91;4389814;32;19998;-95
2022/09/13 06:39:08;;;;;;;;;;;;;;;16.92;52.28;99743.47;4374968;32;20017;-93
2022/09/13 06:41:36;;;;;;;;;;;;;;;17.13;51.88;99742.34;4387257;32;19966;-92
2022/09/13 06:44:03;;;;;;;;;;;;;;;17.24;51.64;99744.84;4390549;32;20728;-86
2022/09/13 06:46:30;;;;;;;;;;;;;;;17.26;51.56;99740.44;4396726;32;19987;-90
2022/09/13 06:48:58;;;;;;;;;;;;;;;17.44;51.65;99741.06;4379106;32;20064;-88
2022/09/13 06:51:25;;;;;;;;;;;;;;;17.59;51.63;99739.12;4386496;32;20052;-92
2022/09/13 06:53:52;;;;;;;;;;;;;;;17.88;51.32;99741.34;4377837;32;20339;-92
2022/09/13 06:56:20;;;;;;;;;;;;;;;18.13;50.73;99736.59;4398403;32;19985;-91
2022/09/13 06:58:47;;;;;;;;;;;;;;;18.27;49.88;99738.97;4385631;32;19982;-92
2022/09/13 07:01:24;;;;;;;;;;;;;;;18.59;48.67;99738.41;4393104;32;20001;-90
2022/09/13 07:03:53;;;;;;;;;;;;;;;18.92;47.49;99743.94;4390264;32;20006;-92
2022/09/13 07:06:22;;;;;;;;;;;;;;;18.93;47.35;99746.53;4382895;32;20915;-92
2022/09/13 07:08:51;;;;;;;;;;;;;;;19.35;45.57;99749.19;4395031;32;20001;-93
2022/09/13 07:11:19;;;;;;;;;;;;;;;19.80;43.93;99751.72;4373268;32;19993;-92
2022/09/13 07:13:47;;;;;;;;;;;;;;;20.20;41.98;99740.25;4386621;32;19970;-94
2022/09/13 07:16:13;;;;;;;;;;;;;;;20.50;44.05;99749.13;4388533;32;19979;-87
2022/09/13 07:18:43;;;;;;;;;;;;;;;20.94;40.77;99748.87;4394779;32;19982;-84
2022/09/13 07:21:10;;;;;;;;;;;;;;;21.03;39.29;99751.25;4391537;32;20457;-90
2022/09/13 07:23:37;;;;;;;;;;;;;;;21.03;38.45;99748.63;4385167;32;19979;-89
2022/09/13 07:26:05;;;;;;;;;;;;;;;21.39;40.27;99756.41;4381995;32;19990;-92
2022/09/13 07:28:33;;;;;;;;;;;;;;;21.43;39.31;99752.75;4385496;32;20005;-90
2022/09/13 07:31:15;;;;;;;;;;;;;;;21.93;38.65;99763.50;4379063;32;19989;-93
2022/09/13 07:33:42;;;;;;;;;;;;;;;22.05;39.28;99757.84;4386986;32;19994;-93
2022/09/13 07:36:10;;;;;;;;;;;;;;;22.53;39.41;99751.91;4392012;32;20001;-86
2022/09/13 07:38:38;;;;;;;;;;;;;;;22.71;37.87;99753.88;4360043;32;19986;-87
2022/09/13 07:41:07;;;;;;;;;;;;;;;22.94;36.95;99744.28;4394993;32;20013;-86
2022/09/13 07:43:34;;;;;;;;;;;;;;;22.83;37.17;99746.44;4377884;32;19990;-96
2022/09/13 07:46:02;;;;;;;;;;;;;;;22.53;36.67;99754.53;4362158;32;20029;-91
2022/09/13 07:48:32;;;;;;;;;;;;;;;22.66;36.18;99753.19;4381330;32;19978;-90
2022/09/13 07:51:00;;;;;;;;;;;;;;;23.04;35.25;99751.00;4403499;32;19988;-90
2022/09/13 07:53:27;;;;;;;;;;;;;;;22.94;36.72;99754.84;4405589;32;20319;-85
2022/09/13 07:56:01;;;;;;;;;;;;;;;22.77;37.61;99762.50;4401050;32;20347;-90
2022/09/13 07:58:28;;;;;;;;;;;;;;;22.52;37.97;99758.06;4387082;32;20000;-81
2022/09/13 08:01:00;;;;;;;;;;;;;;;23.04;37.96;99753.62;4380351;32;19982;-89
2022/09/13 08:03:29;;;;;;;;;;;;;;;23.58;35.07;99755.13;4390947;32;20500;-84
2022/09/13 08:05:55;;;;;;;;;;;;;;;23.20;37.47;99757.44;4394239;32;20028;-84
2022/09/13 08:08:22;;;;;;;;;;;;;;;23.39;36.14;99756.75;4396755;32;19990;-94
2022/09/13 08:10:49;;;;;;;;;;;;;;;23.45;34.38;99756.47;4395347;32;20428;-90
2022/09/13 08:13:16;;;;;;;;;;;;;;;23.34;35.15;99753.41;4394195;32;19978;-80
2022/09/13 08:15:44;;;;;;;;;;;;;;;23.32;36.04;99757.87;4396061;32;20012;-94
2022/09/13 08:18:11;;;;;;;;;;;;;;;23.16;36.41;99755.78;4393040;32;20537;-81
2022/09/13 08:20:38;;;;;;;;;;;;;;;22.87;38.20;99754.19;4393639;32;20316;-94
2022/09/13 08:23:06;;;;;;;;;;;;;;;23.40;37.64;99758.47;4393608;32;20001;-84
2022/09/13 08:25:33;;;;;;;;;;;;;;;23.31;37.30;99758.81;4399770;32;19982;-87
2022/09/13 08:28:02;;;;;;;;;;;;;;;24.00;36.82;99759.66;4390730;32;20061;-92
2022/09/13 08:30:32;;;;;;;;;;;;;;;24.42;35.33;99750.03;4384502;32;20000;-90
2022/09/13 08:33:00;;;;;;;;;;;;;;;24.38;35.46;99754.56;4394477;32;19987;-90
2022/09/13 08:35:27;;;;;;;;;;;;;;;24.23;35.80;99744.63;4402337;32;19969;-94
2022/09/13 08:37:54;;;;;;;;;;;;;;;24.48;35.82;99749.78;4405332;32;19998;-84
2022/09/13 08:40:21;;;;;;;;;;;;;;;24.14;35.69;99754.66;4385074;32;19970;-93
2022/09/13 08:42:48;;;;;;;;;;;;;;;24.48;36.17;99755.06;4395989;32;20008;-90
2022/09/13 08:45:15;;;;;;;;;;;;;;;24.67;33.87;99750.72;4392427;32;19974;-92
2022/09/13 08:47:48;;;;;;;;;;;;;;;24.25;36.59;99748.94;4394965;32;20783;-80
2022/09/13 08:50:20;;;;;;;;;;;;;;;24.12;35.50;99748.59;4389563;32;20018;-94
2022/09/13 08:52:47;;;;;;;;;;;;;;;24.23;36.29;99744.63;4373724;32;20002;-92
2022/09/13 08:55:34;;;;;;;;;;;;;;;24.52;33.83;99749.56;4400085;32;19982;-94
2022/09/13 08:58:01;;;;;;;;;;;;;;;24.07;35.61;99745.25;4380196;32;19946;-82
2022/09/13 09:00:33;;;;;;;;;;;;;;;24.35;35.59;99738.81;4410551;32;19954;-86
2022/09/13 09:03:19;;;;;;;;;;;;;;;24.22;35.66;99745.53;4392263;32;19998;-84
2022/09/13 09:05:46;;;;;;;;;;;;;;;23.96;36.83;99742.16;4407826;32;19987;-82
2022/09/13 09:08:19;;;;;;;;;;;;;;;24.58;35.87;99746.66;4403189;32;20033;-90
2022/09/13 09:10:48;;;;;;;;;;;;;;;24.27;34.32;99746.22;4397976;32;19978;-93
2022/09/13 09:13:18;;;;;;;;;;;;;;;24.91;32.78;99726.72;4381850;32;19978;-83
2022/09/13 09:15:51;;;;;;;;;;;;;;;25.08;33.79;99733.87;4369298;32;20350;-79
2022/09/13 09:18:25;;;;;;;;;;;;;;;24.69;35.63;99732.09;4387721;32;20339;-89
2022/09/13 09:20:53;;;;;;;;;;;;;;;24.74;35.22;99736.28;4387440;32;20289;-93
2022/09/13 09:23:21;;;;;;;;;;;;;;;24.93;34.97;99725.72;4372831;32;19982;-90
2022/09/13 09:25:53;;;;;;;;;;;;;;;25.18;33.98;99724.66;4374267;32;19995;-91
2022/09/13 09:28:20;;;;;;;;;;;;;;;24.99;31.51;99720.16;4378668;32;20049;-81
2022/09/13 09:30:56;;;;;;;;;;;;;;;23.96;34.04;99721.00;4365242;32;19985;-79
2022/09/13 09:33:38;;;;;;;;;;;;;;;24.45;33.12;99719.00;4364611;32;20006;-79
2022/09/13 09:36:17;;;;;;;;;;;;;;;24.30;33.08;99719.63;4372686;32;19975;-82
2022/09/13 09:38:44;;;;;;;;;;;;;;;23.84;32.97;99716.25;4379441;32;19948;-79
2022/09/13 09:41:13;;;;;;;;;;;;;;;24.21;35.62;99717.38;4368977;32;19982;-89
2022/09/13 09:43:51;;;;;;;;;;;;;;;24.85;34.20;99717.25;4362610;32;19983;-82
2022/09/13 09:46:20;;;;;;;;;;;;;;;24.04;33.67;99715.44;4364794;32;20045;-80
2022/09/13 09:48:53;;;;;;;;;;;;;;;24.49;34.83;99715.31;4364531;32;19997;-78
2022/09/13 09:51:21;;;;;;;;;;;;;;;23.94;34.71;99717.59;4363904;32;19958;-87
2022/09/13 09:53:49;;;;;;;;;;;;;;;24.26;34.54;99707.47;4362218;32;19958;-92
2022/09/13 09:56:16;;;;;;;;;;;;;;;25.12;34.01;99698.41;4377783;32;20041;-83
2022/09/13 09:58:43;;;;;;;;;;;;;;;24.52;35.90;99694.00;4383705;32;20001;-96
2022/09/13 10:01:28;;;;;;;;;;;;;;;24.49;33.69;99696.78;4377561;32;19987;-93
2022/09/13 10:04:07;;;;;;;;;;;;;;;24.18;35.09;99689.25;4376865;32;19959;-95
2022/09/13 10:06:35;;;;;;;;;;;;;;;24.89;34.17;99680.91;4367441;32;20001;-96
2022/09/13 10:09:13;;;;;;;;;;;;;;;24.61;34.71;99674.22;4379298;32;19986;-93
2022/09/13 10:11:43;;;;;;;;;;;;;;;24.79;36.76;99675.16;4377561;32;19973;-96
2022/09/13 10:14:26;;;;;;;;;;;;;;;24.79;33.33;99670.75;4389154;32;19974;-92
2022/09/13 10:17:14;;;;;;;;;;;;;;;24.70;34.58;99681.75;4377216;32;20371;-92
2022/09/13 10:19:50;;;;;;;;;;;;;;;25.26;33.19;99669.50;4365775;32;19951;-96
2022/09/13 10:22:16;;;;;;;;;;;;;;;24.94;34.25;99668.31;4364423;32;20034;-95
2022/09/13 10:24:43;;;;;;;;;;;;;;;25.06;33.48;99671.25;4379734;32;19966;-96
2022/09/13 10:27:21;;;;;;;;;;;;;;;24.81;32.50;99662.72;4383247;32;19979;-94
2022/09/13 10:29:49;;;;;;;;;;;;;;;24.73;35.11;99660.44;4368108;32;19950;-96
2022/09/13 10:32:18;;;;;;;;;;;;;;;24.47;34.13;99658.06;4378213;32;19979;-84
2022/09/13 10:34:45;;;;;;;;;;;;;;;24.54;34.28;99656.91;4387903;32;19955;-84
2022/09/13 10:37:14;;;;;;;;;;;;;;;24.70;34.53;99654.44;4389110;32;19990;-96
2022/09/13 10:39:52;;;;;;;;;;;;;;;24.87;34.49;99651.84;4387530;32;19987;-94
2022/09/13 10:42:20;;;;;;;;;;;;;;;25.13;32.06;99641.88;4401122;32;19993;-96
2022/09/13 10:45:10;;;;;;;;;;;;;;;25.74;33.58;99649.50;4394287;32;19990;-96
2022/09/13 10:47:37;;;;;;;;;;;;;;;25.85;33.69;99647.22;4371831;32;20001;-92
2022/09/13 10:50:15;;;;;;;;;;;;;;;25.41;32.83;99658.19;4375715;32;19995;-87
2022/09/13 10:52:43;;;;;;;;;;;;;;;25.35;33.38;99658.47;4371579;32;20676;-89
2022/09/13 10:55:33;;;;;;;;;;;;;;;25.78;30.87;99648.41;4378222;32;19993;-89
2022/09/13 10:58:00;;;;;;;;;;;;;;;25.72;32.18;99648.75;4384244;32;19973;-95
2022/09/13 11:00:31;;;;;;;;;;;;;;;25.64;33.05;99643.81;4393136;32;19965;-93
2022/09/13 11:03:05;;;;;;;;;;;;;;;25.71;32.67;99644.34;4381558;32;19958;-92
2022/09/13 11:05:43;;;;;;;;;;;;;;;24.99;32.29;99643.34;4389643;32;19982;-86
2022/09/13 11:08:25;;;;;;;;;;;;;;;24.90;33.33;99651.72;4385231;32;19970;-94
2022/09/13 11:10:52;;;;;;;;;;;;;;;25.02;33.57;99645.84;4389212;32;19987;-96
2022/09/13 11:13:25;;;;;;;;;;;;;;;25.09;33.77;99642.94;4401340;32;19950;-90
2022/09/13 11:16:08;;;;;;;;;;;;;;;24.89;32.97;99639.41;4380975;32;19979;-80
2022/09/13 11:18:47;;;;;;;;;;;;;;;24.95;33.24;99628.53;4377221;32;19983;-96
2022/09/13 11:21:18;;;;;;;;;;;;;;;25.37;35.07;99634.56;4382152;32;20723;-96
2022/09/13 11:23:48;;;;;;;;;;;;;;;25.39;30.69;99630.88;4399774;32;20017;-93
2022/09/13 11:26:35;;;;;;;;;;;;;;;25.93;31.24;99631.78;4398113;32;20002;-96
2022/09/13 11:29:24;;;;;;;;;;;;;;;25.80;31.56;99633.31;4384685;32;19982;-96
2022/09/13 11:32:00;;;;;;;;;;;;;;;26.09;29.48;99623.03;4391908;32;20324;-95
2022/09/13 11:34:34;;;;;;;;;;;;;;;25.71;30.55;99617.84;4387848;32;20315;-91
2022/09/13 11:37:03;;;;;;;;;;;;;;;25.73;33.55;99623.94;4396116;32;19983;-95
2022/09/13 11:39:49;;;;;;;;;;;;;;;24.86;34.45;99621.03;4393742;32;20069;-95
2022/09/13 11:42:26;;;;;;;;;;;;;;;25.26;32.39;99617.38;4399607;32;19986;-94
2022/09/13 11:45:09;;;;;;;;;;;;;;;25.34;34.32;99609.06;4387032;32;19954;-91
2022/09/13 11:47:40;;;;;;;;;;;;;;;24.61;34.01;99607.19;4381289;32;19994;-94
2022/09/13 11:50:19;;;;;;;;;;;;;;;24.85;35.13;99606.03;4390488;32;20298;-93
2022/09/13 11:52:49;;;;;;;;;;;;;;;25.37;32.50;99598.31;4408966;32;20845;-94
2022/09/13 11:55:17;;;;;;;;;;;;;;;25.46;33.44;99603.19;4372244;32;19970;-94
2022/09/13 11:57:47;;;;;;;;;;;;;;;25.42;34.02;99585.69;4379095;32;19963;-95
2022/09/13 12:00:15;;;;;;;;;;;;;;;24.95;32.81;99591.47;4391948;32;19966;-95
2022/09/13 12:02:48;;;;;;;;;;;;;;;25.02;32.87;99590.25;4395684;32;20006;-91
2022/09/13 12:05:21;;;;;;;;;;;;;;;25.46;32.26;99594.34;4399715;32;19977;-88
2022/09/13 12:08:05;;;;;;;;;;;;;;;25.96;31.05;99594.50;4401648;32;20699;-90
2022/09/13 12:10:32;;;;;;;;;;;;;;;26.03;30.09;99589.72;4412133;32;20020;-93
2022/09/13 12:13:00;;;;;;;;;;;;;;;26.31;30.06;99589.16;4401620;32;19964;-84
2022/09/13 12:15:33;;;;;;;;;;;;;;;26.00;30.03;99586.38;4406066;32;19958;-79
2022/09/13 12:18:06;;;;;;;;;;;;;;;26.20;30.44;99588.87;4393628;32;19973;-80
2022/09/13 12:20:34;;;;;;;;;;;;;;;26.18;32.13;99585.44;4404353;32;20460;-82
2022/09/13 12:23:03;;;;;;;;;;;;;;;25.51;31.93;99574.63;4384735;32;20000;-86
2022/09/13 12:25:40;;;;;;;;;;;;;;;25.43;31.03;99579.47;4400650;32;19970;-83
2022/09/13 12:28:14;;;;;;;;;;;;;;;25.80;31.04;99568.81;4395119;32;19986;-84
2022/09/13 12:31:01;;;;;;;;;;;;;;;25.76;30.53;99565.47;4389842;32;20287;-86
2022/09/13 12:33:28;;;;;;;;;;;;;;;26.23;31.02;99567.47;4371676;32;19982;-90
2022/09/13 12:36:03;;;;;;;;;;;;;;;25.42;32.53;99569.78;4371502;32;20028;-90
2022/09/13 12:38:30;;;;;;;;;;;;;;;25.45;33.60;99568.78;4372154;32;20331;-90
2022/09/13 12:41:16;;;;;;;;;;;;;;;25.01;34.77;99569.97;4375020;32;20008;-94
2022/09/13 12:43:43;;;;;;;;;;;;;;;24.97;35.06;99571.06;4387214;32;19974;-84
2022/09/13 12:46:11;;;;;;;;;;;;;;;25.64;31.98;99568.72;4386863;32;20037;-88
2022/09/13 12:48:41;;;;;;;;;;;;;;;25.59;32.94;99560.13;4397758;32;19986;-90
2022/09/13 12:51:27;;;;;;;;;;;;;;;25.50;34.40;99567.63;4389089;32;19974;-85
2022/09/13 12:53:58;;;;;;;;;;;;;;;25.16;35.17;99557.81;4396050;32;19955;-89
2022/09/13 12:56:40;;;;;;;;;;;;;;;24.86;36.36;99554.84;4375336;32;20020;-89
2022/09/13 12:59:34;;;;;;;;;;;;;;;24.93;35.14;99560.69;4375587;32;19978;-96
2022/09/13 13:02:02;;;;;;;;;;;;;;;25.17;34.42;99554.22;4367628;32;20362;-84
2022/09/13 13:04:31;;;;;;;;;;;;;;;24.99;34.72;99555.97;4394349;32;20040;-82
2022/09/13 13:06:59;;;;;;;;;;;;;;;24.85;34.96;99553.09;4386847;32;19978;-82